Time;durP1;ratioP1;P1;durP2;ratioP2;P2;SDS_P1;SDS_P2;PMS_P1;PMS_P2;Temp;Humidity;BMP_temperature;BMP_pressure;BME280_temperature;BME280_humidity;BME280_pressure;Samples;Min_cycle;Max_cycle;Signal;HPM_P1;HPM_P2
2021/05/20 00:00:17;;;;;;;2.85;1.45;;;;;;;;;;5102862;28;20106;-66
2021/05/20 00:02:43;;;;;;;1.50;1.40;;;;;;;;;;5100008;28;20378;-66
2021/05/20 00:05:10;;;;;;;2.13;1.20;;;;;;;;;;5106279;28;20016;-66
2021/05/20 00:07:36;;;;;;;2.20;1.60;;;;;;;;;;5095961;28;20020;-66
2021/05/20 00:10:01;;;;;;;1.60;1.50;;;;;;;;;;5096637;28;20030;-66
2021/05/20 00:12:26;;;;;;;1.70;1.60;;;;;;;;;;5110436;28;20471;-66
2021/05/20 00:14:51;;;;;;;4.32;1.85;;;;;;;;;;5091644;28;20020;-67
2021/05/20 00:17:17;;;;;;;2.53;2.17;;;;;;;;;;5102679;28;20024;-66
2021/05/20 00:19:42;;;;;;;2.28;2.13;;;;;;;;;;5098088;28;20031;-66
2021/05/20 00:22:08;;;;;;;2.20;2.00;;;;;;;;;;5114350;28;20026;-67
2021/05/20 00:24:33;;;;;;;2.35;2.13;;;;;;;;;;5099935;28;20114;-66
2021/05/20 00:26:58;;;;;;;2.05;1.85;;;;;;;;;;5093561;28;20475;-66
2021/05/20 00:29:23;;;;;;;2.92;2.15;;;;;;;;;;5105451;28;20055;-66
2021/05/20 00:31:49;;;;;;;3.15;1.70;;;;;;;;;;5093315;28;20048;-66
2021/05/20 00:34:14;;;;;;;2.45;2.20;;;;;;;;;;5092754;28;20491;-66
2021/05/20 00:36:39;;;;;;;2.80;2.53;;;;;;;;;;5108403;28;20071;-66
2021/05/20 00:39:05;;;;;;;3.75;2.80;;;;;;;;;;5094392;28;20111;-66
2021/05/20 00:41:30;;;;;;;3.83;3.35;;;;;;;;;;5103589;28;20015;-66
2021/05/20 00:43:55;;;;;;;4.53;3.08;;;;;;;;;;5108930;28;20698;-66
2021/05/20 00:46:20;;;;;;;2.67;2.15;;;;;;;;;;5105100;28;20016;-66
2021/05/20 00:48:46;;;;;;;2.97;2.03;;;;;;;;;;5099388;28;20467;-66
2021/05/20 00:51:11;;;;;;;2.55;1.83;;;;;;;;;;5100703;28;20042;-66
2021/05/20 00:53:36;;;;;;;1.80;1.60;;;;;;;;;;5108653;28;20110;-66
2021/05/20 00:56:02;;;;;;;1.38;1.00;;;;;;;;;;5098404;28;20069;-66
2021/05/20 00:58:27;;;;;;;0.75;0.50;;;;;;;;;;5102295;28;20027;-66
2021/05/20 01:00:54;;;;;;;0.85;0.30;;;;;;;;;;5102014;28;20110;-67
2021/05/20 01:03:19;;;;;;;0.70;0.60;;;;;;;;;;5096226;28;20011;-66
2021/05/20 01:05:45;;;;;;;0.40;0.30;;;;;;;;;;5110158;28;20019;-66
2021/05/20 01:08:10;;;;;;;1.80;0.98;;;;;;;;;;5099247;28;20047;-66
2021/05/20 01:10:35;;;;;;;1.27;0.77;;;;;;;;;;5099990;28;20454;-66
2021/05/20 01:13:00;;;;;;;1.20;1.00;;;;;;;;;;5093008;28;20016;-66
2021/05/20 01:15:27;;;;;;;2.15;1.25;;;;;;;;;;5090588;28;20470;-66
2021/05/20 01:17:57;;;;;;;1.98;0.80;;;;;;;;;;5095020;28;20015;-66
2021/05/20 01:20:23;;;;;;;1.38;0.77;;;;;;;;;;5101261;28;20478;-66
2021/05/20 01:22:49;;;;;;;2.08;1.20;;;;;;;;;;5099021;28;20475;-66
2021/05/20 01:25:14;;;;;;;2.92;1.70;;;;;;;;;;5096502;28;20021;-67
2021/05/20 01:27:43;;;;;;;2.72;1.60;;;;;;;;;;5104283;28;20023;-66
2021/05/20 01:30:09;;;;;;;4.28;2.20;;;;;;;;;;5103348;28;20047;-66
2021/05/20 01:32:35;;;;;;;1.23;0.93;;;;;;;;;;5098989;28;20024;-66
2021/05/20 01:35:00;;;;;;;3.08;1.13;;;;;;;;;;5098371;28;20023;-66
2021/05/20 01:37:25;;;;;;;1.27;0.90;;;;;;;;;;5094925;28;20494;-67
2021/05/20 01:39:51;;;;;;;2.47;0.93;;;;;;;;;;5103302;28;20027;-66
2021/05/20 01:42:16;;;;;;;1.58;1.45;;;;;;;;;;5102978;28;20403;-66
2021/05/20 01:44:41;;;;;;;1.92;1.73;;;;;;;;;;5093287;28;20374;-66
2021/05/20 01:47:07;;;;;;;3.10;1.95;;;;;;;;;;5104006;28;20015;-66
2021/05/20 01:49:32;;;;;;;2.25;1.90;;;;;;;;;;5091295;28;20085;-66
2021/05/20 01:51:57;;;;;;;4.75;3.17;;;;;;;;;;5092996;28;20019;-66
2021/05/20 01:54:22;;;;;;;3.85;3.53;;;;;;;;;;5089815;28;20159;-66
2021/05/20 01:56:48;;;;;;;5.82;4.53;;;;;;;;;;5104846;28;20107;-66
2021/05/20 01:59:13;;;;;;;5.70;5.20;;;;;;;;;;5093768;28;20576;-66
2021/05/20 02:01:40;;;;;;;4.88;4.47;;;;;;;;;;5104923;28;20383;-66
2021/05/20 02:04:05;;;;;;;4.75;4.32;;;;;;;;;;5102902;28;20502;-66
2021/05/20 02:06:31;;;;;;;5.70;4.40;;;;;;;;;;5098853;28;20157;-66
2021/05/20 02:08:56;;;;;;;4.50;3.72;;;;;;;;;;5104596;28;20387;-66
2021/05/20 02:11:21;;;;;;;4.90;3.60;;;;;;;;;;5095109;28;20027;-66
2021/05/20 02:13:46;;;;;;;4.10;3.72;;;;;;;;;;5097215;28;20077;-66
2021/05/20 02:16:12;;;;;;;3.70;3.40;;;;;;;;;;5089926;28;20031;-66
2021/05/20 02:18:37;;;;;;;3.60;3.30;;;;;;;;;;5102533;28;20031;-66
2021/05/20 02:21:03;;;;;;;3.67;3.20;;;;;;;;;;5093881;28;20073;-66
2021/05/20 02:23:28;;;;;;;3.33;3.03;;;;;;;;;;5102658;28;20028;-66
2021/05/20 02:25:53;;;;;;;3.97;3.67;;;;;;;;;;5094391;28;20086;-66
2021/05/20 02:28:19;;;;;;;4.47;3.00;;;;;;;;;;5096728;28;20027;-68
2021/05/20 02:30:44;;;;;;;3.83;2.95;;;;;;;;;;5091940;28;20055;-66
2021/05/20 02:33:09;;;;;;;3.30;2.97;;;;;;;;;;5099495;28;20020;-66
2021/05/20 02:35:35;;;;;;;4.57;3.28;;;;;;;;;;5107711;28;20030;-66
2021/05/20 02:38:00;;;;;;;3.22;2.92;;;;;;;;;;5100142;28;20020;-66
2021/05/20 02:40:25;;;;;;;3.80;3.40;;;;;;;;;;5091657;28;20028;-66
2021/05/20 02:42:50;;;;;;;3.03;2.83;;;;;;;;;;5100123;28;20074;-66
2021/05/20 02:45:20;;;;;;;4.38;3.00;;;;;;;;;;5102863;28;20131;-66
2021/05/20 02:47:46;;;;;;;3.40;3.10;;;;;;;;;;5111204;28;20062;-66
2021/05/20 02:50:12;;;;;;;4.43;3.40;;;;;;;;;;5112334;28;20031;-66
2021/05/20 02:52:38;;;;;;;3.63;3.33;;;;;;;;;;5106788;28;20028;-66
2021/05/20 02:55:04;;;;;;;3.67;3.33;;;;;;;;;;5094992;28;20023;-66
2021/05/20 02:57:30;;;;;;;3.70;3.25;;;;;;;;;;5097461;28;20028;-66
2021/05/20 02:59:56;;;;;;;4.47;3.60;;;;;;;;;;5098920;28;20489;-66
2021/05/20 03:02:22;;;;;;;4.07;3.67;;;;;;;;;;5106650;28;20020;-66
2021/05/20 03:04:47;;;;;;;4.97;3.92;;;;;;;;;;5096283;28;20012;-64
2021/05/20 03:07:12;;;;;;;5.43;4.32;;;;;;;;;;5114701;28;20019;-64
2021/05/20 03:09:39;;;;;;;5.70;4.40;;;;;;;;;;5101035;27;20035;-64
2021/05/20 03:12:04;;;;;;;5.53;5.03;;;;;;;;;;5097665;28;20035;-64
2021/05/20 03:14:29;;;;;;;5.63;4.30;;;;;;;;;;5095527;28;20024;-64
2021/05/20 03:16:55;;;;;;;5.70;4.88;;;;;;;;;;5094019;28;20490;-64
2021/05/20 03:19:20;;;;;;;5.30;4.80;;;;;;;;;;5097766;28;20028;-64
2021/05/20 03:21:46;;;;;;;7.25;5.28;;;;;;;;;;5094896;28;20087;-64
2021/05/20 03:24:11;;;;;;;5.72;5.13;;;;;;;;;;5096327;27;20082;-65
2021/05/20 03:26:37;;;;;;;5.60;5.00;;;;;;;;;;5103232;28;20070;-64
2021/05/20 03:29:02;;;;;;;6.70;4.78;;;;;;;;;;5094813;28;20399;-67
2021/05/20 03:31:28;;;;;;;6.40;5.10;;;;;;;;;;5101125;28;20055;-67
2021/05/20 03:33:53;;;;;;;5.13;3.78;;;;;;;;;;5094981;28;20020;-67
2021/05/20 03:36:19;;;;;;;5.43;4.32;;;;;;;;;;5094474;28;20050;-67
2021/05/20 03:38:44;;;;;;;5.90;3.75;;;;;;;;;;5114128;28;20111;-64
2021/05/20 03:41:09;;;;;;;3.95;3.55;;;;;;;;;;5106018;28;20052;-64
2021/05/20 03:43:35;;;;;;;4.65;3.25;;;;;;;;;;5102710;28;20050;-64
2021/05/20 03:46:00;;;;;;;4.18;3.58;;;;;;;;;;5104873;28;20051;-64
2021/05/20 03:48:25;;;;;;;5.28;3.17;;;;;;;;;;5114264;28;20065;-64
2021/05/20 03:50:51;;;;;;;2.60;2.40;;;;;;;;;;5104933;28;20153;-64
2021/05/20 03:53:16;;;;;;;4.45;2.55;;;;;;;;;;5093489;28;20046;-64
2021/05/20 03:55:42;;;;;;;3.10;2.80;;;;;;;;;;5106422;28;20012;-64
2021/05/20 03:58:07;;;;;;;3.15;2.85;;;;;;;;;;5104437;28;20023;-64
2021/05/20 04:00:32;;;;;;;3.80;3.25;;;;;;;;;;5094627;28;20031;-64
2021/05/20 04:02:57;;;;;;;3.20;2.90;;;;;;;;;;5092825;28;20039;-65
2021/05/20 04:05:23;;;;;;;2.83;2.50;;;;;;;;;;5090520;28;20420;-65
2021/05/20 04:07:48;;;;;;;3.40;2.42;;;;;;;;;;5110978;28;20023;-65
2021/05/20 04:10:13;;;;;;;2.47;2.22;;;;;;;;;;5094134;28;20019;-65
2021/05/20 04:12:39;;;;;;;4.03;2.55;;;;;;;;;;5107838;28;20047;-65
2021/05/20 04:15:04;;;;;;;3.40;2.58;;;;;;;;;;5101405;28;20091;-65
2021/05/20 04:17:29;;;;;;;2.53;2.33;;;;;;;;;;5109409;28;20034;-66
2021/05/20 04:19:55;;;;;;;2.10;1.90;;;;;;;;;;5094023;28;20031;-65
2021/05/20 04:22:20;;;;;;;3.03;1.98;;;;;;;;;;5093944;28;20032;-65
2021/05/20 04:24:45;;;;;;;3.10;2.42;;;;;;;;;;5089464;28;20032;-65
2021/05/20 04:27:10;;;;;;;3.15;2.85;;;;;;;;;;5093888;28;20020;-65
2021/05/20 04:29:36;;;;;;;2.25;2.05;;;;;;;;;;5091912;28;20052;-65
2021/05/20 04:32:01;;;;;;;1.80;1.70;;;;;;;;;;5094395;28;20525;-65
2021/05/20 04:34:26;;;;;;;2.40;1.48;;;;;;;;;;5107751;28;20034;-65
2021/05/20 04:36:51;;;;;;;3.42;1.77;;;;;;;;;;5093706;28;20043;-65
2021/05/20 04:39:17;;;;;;;1.52;1.42;;;;;;;;;;5093703;28;20069;-65
2021/05/20 04:41:42;;;;;;;2.33;1.50;;;;;;;;;;5103387;28;20023;-65
2021/05/20 04:44:07;;;;;;;1.75;1.48;;;;;;;;;;5110842;28;20157;-65
2021/05/20 04:46:33;;;;;;;1.45;1.35;;;;;;;;;;5113199;28;20367;-65
2021/05/20 04:48:58;;;;;;;2.10;1.45;;;;;;;;;;5098637;28;20421;-65
2021/05/20 04:51:23;;;;;;;2.03;1.35;;;;;;;;;;5099641;28;20473;-65
2021/05/20 04:53:50;;;;;;;2.65;1.50;;;;;;;;;;5093852;28;20026;-66
2021/05/20 04:56:22;;;;;;;1.50;1.38;;;;;;;;;;5111915;28;20032;-65
2021/05/20 04:58:47;;;;;;;2.65;1.30;;;;;;;;;;5111728;28;20035;-65
2021/05/20 05:01:12;;;;;;;1.30;1.20;;;;;;;;;;5097050;28;20034;-65
2021/05/20 05:03:38;;;;;;;2.22;1.42;;;;;;;;;;5106264;28;20024;-65
2021/05/20 05:06:03;;;;;;;1.30;1.08;;;;;;;;;;5103994;28;20011;-65
2021/05/20 05:08:28;;;;;;;2.05;1.15;;;;;;;;;;5110978;28;20494;-65
2021/05/20 05:10:53;;;;;;;1.70;0.80;;;;;;;;;;5105214;28;20018;-65
2021/05/20 05:13:19;;;;;;;2.28;1.17;;;;;;;;;;5097106;28;20009;-65
2021/05/20 05:15:44;;;;;;;2.10;1.15;;;;;;;;;;5089932;28;20016;-65
2021/05/20 05:18:10;;;;;;;1.77;1.05;;;;;;;;;;5099534;28;20356;-65
2021/05/20 05:20:35;;;;;;;1.75;1.10;;;;;;;;;;5101123;28;20016;-65
2021/05/20 05:23:00;;;;;;;2.67;1.17;;;;;;;;;;5103468;28;20534;-65
2021/05/20 05:25:25;;;;;;;3.05;1.17;;;;;;;;;;5090157;28;20421;-65
2021/05/20 05:27:51;;;;;;;0.90;0.90;;;;;;;;;;5106654;28;20371;-65
2021/05/20 05:30:16;;;;;;;1.30;1.20;;;;;;;;;;5107621;28;20134;-65
2021/05/20 05:32:41;;;;;;;2.05;1.30;;;;;;;;;;5093589;28;20019;-65
2021/05/20 05:35:07;;;;;;;1.50;1.40;;;;;;;;;;5094050;28;20394;-65
2021/05/20 05:37:32;;;;;;;5.32;1.10;;;;;;;;;;5093511;28;20024;-65
2021/05/20 05:39:58;;;;;;;3.97;1.02;;;;;;;;;;5110144;28;20023;-65
2021/05/20 05:42:24;;;;;;;5.47;1.38;;;;;;;;;;5101630;28;20020;-65
2021/05/20 05:44:49;;;;;;;3.58;1.40;;;;;;;;;;5109636;28;20436;-65
2021/05/20 05:47:14;;;;;;;2.65;1.77;;;;;;;;;;5107912;28;20420;-64
2021/05/20 05:49:43;;;;;;;1.45;1.35;;;;;;;;;;5112354;28;20046;-65
2021/05/20 05:52:09;;;;;;;4.32;1.40;;;;;;;;;;5097092;28;20030;-65
2021/05/20 05:54:35;;;;;;;2.17;1.27;;;;;;;;;;5089346;28;20050;-65
2021/05/20 05:57:00;;;;;;;1.90;1.77;;;;;;;;;;5104893;28;20036;-65
2021/05/20 05:59:25;;;;;;;4.18;1.23;;;;;;;;;;5095169;28;20081;-65
2021/05/20 06:01:51;;;;;;;2.05;1.23;;;;;;;;;;5098239;28;20505;-66
2021/05/20 06:04:16;;;;;;;1.35;1.00;;;;;;;;;;5088935;28;20039;-66
2021/05/20 06:06:42;;;;;;;1.52;1.00;;;;;;;;;;5092142;28;20012;-65
2021/05/20 06:09:07;;;;;;;1.63;1.52;;;;;;;;;;5092424;28;20573;-65
2021/05/20 06:11:33;;;;;;;1.67;1.15;;;;;;;;;;5091545;28;20497;-66
2021/05/20 06:14:02;;;;;;;1.60;1.40;;;;;;;;;;5098599;28;20177;-66
2021/05/20 06:16:27;;;;;;;1.20;1.10;;;;;;;;;;5090681;28;20059;-66
2021/05/20 06:18:52;;;;;;;1.98;1.25;;;;;;;;;;5092816;28;20062;-65
2021/05/20 06:21:17;;;;;;;1.85;1.55;;;;;;;;;;5092591;28;20031;-66
2021/05/20 06:23:43;;;;;;;1.50;0.90;;;;;;;;;;5090982;28;20027;-66
2021/05/20 06:26:08;;;;;;;2.63;1.17;;;;;;;;;;5105590;28;20098;-65
2021/05/20 06:28:35;;;;;;;2.58;2.00;;;;;;;;;;5095369;28;20020;-66
2021/05/20 06:31:00;;;;;;;1.58;1.00;;;;;;;;;;5111252;28;20406;-66
2021/05/20 06:33:25;;;;;;;1.58;0.98;;;;;;;;;;5103577;28;20020;-66
2021/05/20 06:35:51;;;;;;;1.40;1.25;;;;;;;;;;5102798;28;20024;-66
2021/05/20 06:38:16;;;;;;;1.02;0.82;;;;;;;;;;5111367;28;20395;-66
2021/05/20 06:40:41;;;;;;;2.50;1.08;;;;;;;;;;5098434;28;20020;-66
2021/05/20 06:43:06;;;;;;;2.20;1.48;;;;;;;;;;5102879;28;20489;-66
2021/05/20 06:45:32;;;;;;;1.35;1.25;;;;;;;;;;5097018;28;20028;-66
2021/05/20 06:47:57;;;;;;;1.42;0.80;;;;;;;;;;5094431;28;20028;-66
2021/05/20 06:50:22;;;;;;;1.48;1.38;;;;;;;;;;5100607;28;20020;-66
2021/05/20 06:52:50;;;;;;;1.60;1.00;;;;;;;;;;5108755;28;20055;-66
2021/05/20 06:55:15;;;;;;;1.35;1.25;;;;;;;;;;5098253;28;20080;-66
2021/05/20 07:00:25;;;;;;;1.77;1.67;;;;;;;;;;5103679;28;20088;-66
2021/05/20 07:02:50;;;;;;;2.15;1.73;;;;;;;;;;5098314;28;20028;-66
2021/05/20 07:05:15;;;;;;;3.60;3.30;;;;;;;;;;5093164;28;20052;-66
2021/05/20 07:07:41;;;;;;;2.55;2.35;;;;;;;;;;5096777;28;20456;-66
2021/05/20 07:10:07;;;;;;;2.13;2.03;;;;;;;;;;5095314;28;20110;-66
2021/05/20 07:12:32;;;;;;;2.53;2.08;;;;;;;;;;5098847;28;20103;-66
2021/05/20 07:14:58;;;;;;;2.30;2.10;;;;;;;;;;5108275;28;20023;-66
2021/05/20 07:17:24;;;;;;;2.75;2.55;;;;;;;;;;5109712;28;20023;-66
2021/05/20 07:19:49;;;;;;;3.38;3.00;;;;;;;;;;5099225;28;20403;-66
2021/05/20 07:22:14;;;;;;;2.75;2.00;;;;;;;;;;5098297;28;20020;-66
2021/05/20 07:24:42;;;;;;;2.45;1.90;;;;;;;;;;5101733;28;20444;-68
2021/05/20 07:27:07;;;;;;;2.92;1.95;;;;;;;;;;5101340;28;20028;-67
2021/05/20 07:29:32;;;;;;;2.95;1.65;;;;;;;;;;5092124;28;20051;-67
2021/05/20 07:31:58;;;;;;;2.55;2.25;;;;;;;;;;5103533;28;20112;-67
2021/05/20 07:34:23;;;;;;;3.13;2.10;;;;;;;;;;5105692;28;20018;-65
2021/05/20 07:36:48;;;;;;;2.42;2.22;;;;;;;;;;5105738;28;20488;-66
2021/05/20 07:39:15;;;;;;;2.20;1.88;;;;;;;;;;5104767;28;20108;-66
2021/05/20 07:41:41;;;;;;;1.98;1.88;;;;;;;;;;5105013;28;20377;-66
2021/05/20 07:44:07;;;;;;;1.42;1.27;;;;;;;;;;5091499;28;20023;-65
2021/05/20 07:46:32;;;;;;;2.22;2.03;;;;;;;;;;5102043;28;20008;-66
2021/05/20 07:48:57;;;;;;;1.98;1.83;;;;;;;;;;5106353;28;20039;-66
2021/05/20 07:51:22;;;;;;;2.15;2.05;;;;;;;;;;5098010;28;20493;-66
2021/05/20 07:53:48;;;;;;;2.25;2.08;;;;;;;;;;5100259;28;20023;-66
2021/05/20 07:56:13;;;;;;;2.00;1.20;;;;;;;;;;5100395;28;20020;-65
2021/05/20 07:58:38;;;;;;;1.23;0.98;;;;;;;;;;5114379;28;20051;-66
2021/05/20 08:01:04;;;;;;;1.55;1.45;;;;;;;;;;5104095;28;20024;-66
2021/05/20 08:06:23;;;;;;;2.83;2.22;;;;;;;;;;5102144;28;20047;-66
2021/05/20 08:11:12;;;;;;;2.35;1.55;;;;;;;;;;5094634;28;20459;-66
2021/05/20 08:13:37;;;;;;;1.80;1.70;;;;;;;;;;5091948;28;20061;-66
2021/05/20 08:16:03;;;;;;;1.75;1.00;;;;;;;;;;5106604;28;20114;-66
2021/05/20 08:18:29;;;;;;;1.90;1.70;;;;;;;;;;5111983;28;20030;-66
2021/05/20 08:20:55;;;;;;;2.35;1.80;;;;;;;;;;5110066;27;20065;-66
2021/05/20 08:23:20;;;;;;;2.00;1.80;;;;;;;;;;5114334;27;20015;-66
2021/05/20 08:25:45;;;;;;;2.35;2.15;;;;;;;;;;5100654;28;20019;-66
2021/05/20 08:28:11;;;;;;;2.20;1.75;;;;;;;;;;5097450;28;20024;-66
2021/05/20 08:30:36;;;;;;;3.90;1.92;;;;;;;;;;5094940;28;20433;-65
2021/05/20 08:33:02;;;;;;;0.85;0.73;;;;;;;;;;5100979;28;20433;-66
2021/05/20 08:35:27;;;;;;;0.93;0.73;;;;;;;;;;5097013;28;20107;-66
2021/05/20 08:37:53;;;;;;;2.40;1.85;;;;;;;;;;5093441;28;20649;-67
2021/05/20 08:40:18;;;;;;;1.92;1.83;;;;;;;;;;5093508;28;20137;-66
2021/05/20 08:42:44;;;;;;;3.05;2.30;;;;;;;;;;5093807;28;20027;-66
2021/05/20 08:45:11;;;;;;;1.98;1.88;;;;;;;;;;5102488;28;20020;-66
2021/05/20 08:47:36;;;;;;;2.45;1.83;;;;;;;;;;5093276;28;20020;-66
2021/05/20 08:50:02;;;;;;;2.13;2.00;;;;;;;;;;5100747;28;20030;-66
2021/05/20 08:52:27;;;;;;;1.85;1.75;;;;;;;;;;5100245;28;20039;-66
2021/05/20 08:54:52;;;;;;;3.15;2.00;;;;;;;;;;5096699;28;20079;-66
2021/05/20 08:57:22;;;;;;;1.55;1.30;;;;;;;;;;5112370;28;20378;-66
2021/05/20 08:59:47;;;;;;;1.80;1.70;;;;;;;;;;5106348;28;20020;-67
2021/05/20 09:02:22;;;;;;;2.58;2.03;;;;;;;;;;5098605;28;20015;-66
2021/05/20 09:04:47;;;;;;;;;;;;;;;;;;5110767;28;20027;-67
2021/05/20 09:07:13;;;;;;;1.80;1.70;;;;;;;;;;5106635;28;19956;-66
2021/05/20 09:09:39;;;;;;;3.20;1.92;;;;;;;;;;5105281;28;20088;-67
2021/05/20 09:12:05;;;;;;;4.32;2.70;;;;;;;;;;5102959;28;20015;-66
2021/05/20 09:14:34;;;;;;;2.88;2.50;;;;;;;;;;5107600;28;20020;-67
2021/05/20 09:17:16;;;;;;;3.30;1.23;;;;;;;;;;5109147;28;20488;-66
2021/05/20 09:19:42;;;;;;;2.10;2.00;;;;;;;;;;5111496;28;20020;-66
2021/05/20 09:22:09;;;;;;;1.15;1.05;;;;;;;;;;5093446;28;20055;-66
2021/05/20 09:24:47;;;;;;;1.50;1.40;;;;;;;;;;5102108;28;20083;-66
2021/05/20 09:27:34;;;;;;;2.40;1.45;;;;;;;;;;5101454;28;20105;-66
2021/05/20 09:30:18;;;;;;;1.98;1.50;;;;;;;;;;5097830;28;20044;-66
2021/05/20 09:32:47;;;;;;;1.63;1.52;;;;;;;;;;5095844;28;20051;-66
2021/05/20 09:35:13;;;;;;;0.93;0.75;;;;;;;;;;5088608;28;20475;-66
2021/05/20 09:37:49;;;;;;;1.02;0.80;;;;;;;;;;5092929;28;20042;-67
2021/05/20 09:40:16;;;;;;;1.63;1.20;;;;;;;;;;5108631;28;20023;-67
2021/05/20 09:42:42;;;;;;;1.70;1.17;;;;;;;;;;5109624;28;20016;-65
2021/05/20 09:45:09;;;;;;;1.15;0.95;;;;;;;;;;5106651;28;20466;-65
2021/05/20 09:47:34;;;;;;;1.90;0.82;;;;;;;;;;5092286;28;20042;-65
2021/05/20 09:50:01;;;;;;;1.27;1.17;;;;;;;;;;5104667;28;20530;-66
2021/05/20 09:52:27;;;;;;;1.27;1.08;;;;;;;;;;5099297;28;20028;-66
2021/05/20 09:54:52;;;;;;;1.70;0.90;;;;;;;;;;5108359;28;20023;-66
2021/05/20 09:57:24;;;;;;;1.08;0.80;;;;;;;;;;5112030;28;20427;-66
2021/05/20 10:00:06;;;;;;;1.30;1.02;;;;;;;;;;5104186;28;20016;-66
2021/05/20 10:02:32;;;;;;;1.48;1.38;;;;;;;;;;5095624;28;20503;-66
2021/05/20 10:04:58;;;;;;;0.70;0.70;;;;;;;;;;5106565;28;20103;-66
2021/05/20 10:07:27;;;;;;;0.40;0.35;;;;;;;;;;5116286;28;20043;-65
2021/05/20 10:09:54;;;;;;;1.08;0.40;;;;;;;;;;5096420;28;20069;-66
2021/05/20 10:12:19;;;;;;;0.50;0.40;;;;;;;;;;5098168;28;20020;-66
2021/05/20 10:14:47;;;;;;;1.02;0.20;;;;;;;;;;5100321;28;20077;-66
2021/05/20 10:17:15;;;;;;;0.70;0.40;;;;;;;;;;5103229;28;20027;-66
2021/05/20 10:19:41;;;;;;;1.00;0.30;;;;;;;;;;5103694;28;20016;-66
2021/05/20 10:22:07;;;;;;;1.55;0.50;;;;;;;;;;5104827;28;20092;-66
2021/05/20 10:37:08;;;;;;;1.83;1.13;;;;;;;;;;5108543;27;20443;-65
2021/05/20 10:39:34;;;;;;;1.75;1.40;;;;;;;;;;5088227;28;20510;-65
2021/05/20 10:41:59;;;;;;;2.15;1.20;;;;;;;;;;5081413;28;20024;-65
2021/05/20 10:44:26;;;;;;;2.50;1.02;;;;;;;;;;5088585;28;20458;-63
2021/05/20 10:46:57;;;;;;;1.25;1.15;;;;;;;;;;5072789;28;20491;-63
2021/05/20 10:49:41;;;;;;;1.58;0.82;;;;;;;;;;5097225;28;20020;-63
2021/05/20 10:52:26;;;;;;;0.82;0.82;;;;;;;;;;5086580;28;20051;-63
2021/05/20 10:54:58;;;;;;;1.75;0.93;;;;;;;;;;5087198;28;20069;-63
2021/05/20 10:57:43;;;;;;;1.33;0.98;;;;;;;;;;5087090;28;20248;-64
2021/05/20 11:00:28;;;;;;;2.17;1.80;;;;;;;;;;5110268;27;20059;-64
2021/05/20 11:02:54;;;;;;;2.40;1.42;;;;;;;;;;5071041;28;20438;-63
2021/05/20 11:05:38;;;;;;;1.65;0.88;;;;;;;;;;5068159;28;20100;-63
2021/05/20 11:08:03;;;;;;;1.52;0.90;;;;;;;;;;5078077;28;20026;-63
2021/05/20 11:10:34;;;;;;;0.68;0.60;;;;;;;;;;5085466;28;20013;-63
2021/05/20 11:13:00;;;;;;;1.70;1.30;;;;;;;;;;5092097;28;20539;-64
2021/05/20 11:15:26;;;;;;;2.13;0.75;;;;;;;;;;5093947;28;20111;-63
2021/05/20 11:17:51;;;;;;;1.38;1.20;;;;;;;;;;5103762;28;20020;-67
2021/05/20 11:20:25;;;;;;;2.30;1.33;;;;;;;;;;5084618;28;20107;-65
2021/05/20 11:23:09;;;;;;;1.15;1.05;;;;;;;;;;5101149;28;20027;-64
2021/05/20 11:25:34;;;;;;;2.05;1.55;;;;;;;;;;5078302;28;20120;-64
2021/05/20 11:28:06;;;;;;;1.38;1.27;;;;;;;;;;5079104;28;20134;-64
2021/05/20 11:30:31;;;;;;;3.20;1.60;;;;;;;;;;5068428;28;20475;-64
2021/05/20 11:32:58;;;;;;;1.80;1.70;;;;;;;;;;5074719;28;20099;-64
2021/05/20 11:37:52;;;;;;;1.48;1.17;;;;;;;;;;5074844;28;20016;-64
2021/05/20 11:40:32;;;;;;;1.60;1.50;;;;;;;;;;5058492;28;20524;-64
2021/05/20 11:42:58;;;;;;;1.80;1.63;;;;;;;;;;5073232;28;20375;-64
2021/05/20 11:45:24;;;;;;;2.65;1.23;;;;;;;;;;5072293;28;20029;-64
2021/05/20 11:47:53;;;;;;;1.88;1.30;;;;;;;;;;5063993;28;20024;-65
2021/05/20 11:50:18;;;;;;;1.80;1.65;;;;;;;;;;5061218;28;20024;-64
2021/05/20 11:52:43;;;;;;;2.53;1.90;;;;;;;;;;5055613;28;20372;-65
2021/05/20 11:55:09;;;;;;;1.67;1.42;;;;;;;;;;5066709;28;20465;-64
2021/05/20 11:57:34;;;;;;;1.20;1.05;;;;;;;;;;5064539;28;20028;-65
2021/05/20 11:59:59;;;;;;;1.70;1.00;;;;;;;;;;5059895;28;20012;-65
2021/05/20 12:02:26;;;;;;;1.48;1.30;;;;;;;;;;5062571;28;20143;-63
2021/05/20 12:04:57;;;;;;;1.70;0.85;;;;;;;;;;5059867;28;20048;-63
2021/05/20 12:07:23;;;;;;;1.33;1.10;;;;;;;;;;5059701;28;20031;-63
2021/05/20 12:09:48;;;;;;;1.58;1.40;;;;;;;;;;5063916;28;20016;-63
2021/05/20 12:12:16;;;;;;;2.22;1.45;;;;;;;;;;5062239;28;20028;-63
2021/05/20 12:14:41;;;;;;;1.20;1.00;;;;;;;;;;5063989;28;20074;-63
2021/05/20 12:17:06;;;;;;;2.53;1.60;;;;;;;;;;5061047;28;20033;-63
2021/05/20 12:19:33;;;;;;;1.60;1.30;;;;;;;;;;5062444;28;20074;-63
2021/05/20 12:21:59;;;;;;;1.40;1.00;;;;;;;;;;5102324;28;20540;-64
2021/05/20 12:24:31;;;;;;;1.45;1.27;;;;;;;;;;5060092;28;20020;-64
2021/05/20 12:27:03;;;;;;;0.75;0.70;;;;;;;;;;5058796;28;20019;-64
2021/05/20 12:29:28;;;;;;;0.75;0.60;;;;;;;;;;5073744;28;20095;-64
2021/05/20 12:31:53;;;;;;;1.17;0.60;;;;;;;;;;5061552;28;20092;-63
2021/05/20 12:34:22;;;;;;;2.67;0.70;;;;;;;;;;5071602;28;20031;-64
2021/05/20 12:36:47;;;;;;;1.80;0.90;;;;;;;;;;5068959;28;20087;-64
2021/05/20 12:39:13;;;;;;;1.10;0.60;;;;;;;;;;5054623;28;20021;-63
2021/05/20 12:41:38;;;;;;;1.23;0.90;;;;;;;;;;5058233;28;20129;-64
2021/05/20 12:44:17;;;;;;;1.50;0.50;;;;;;;;;;5068861;28;20024;-64
2021/05/20 12:46:42;;;;;;;0.85;0.63;;;;;;;;;;5064057;28;20036;-64
2021/05/20 12:49:08;;;;;;;1.20;1.05;;;;;;;;;;5051506;28;20017;-64
2021/05/20 12:51:33;;;;;;;0.90;0.80;;;;;;;;;;5083768;28;20028;-64
2021/05/20 12:54:04;;;;;;;0.90;0.75;;;;;;;;;;5105055;28;20412;-64
2021/05/20 12:56:30;;;;;;;0.90;0.57;;;;;;;;;;5062936;28;20025;-63
2021/05/20 12:59:10;;;;;;;1.27;1.20;;;;;;;;;;5057513;28;20028;-64
2021/05/20 13:01:37;;;;;;;1.90;0.90;;;;;;;;;;5067848;28;20128;-64
2021/05/20 13:04:35;;;;;;;0.98;0.80;;;;;;;;;;5064890;28;20066;-64
2021/05/20 13:07:07;;;;;;;1.35;1.10;;;;;;;;;;5065374;28;20471;-64
2021/05/20 13:09:33;;;;;;;0.80;0.80;;;;;;;;;;5109327;27;20147;-64
2021/05/20 13:12:13;;;;;;;2.88;1.10;;;;;;;;;;5073050;28;20530;-64
2021/05/20 13:14:43;;;;;;;1.02;0.90;;;;;;;;;;5062012;28;20020;-64
2021/05/20 13:22:41;;;;;;;2.05;1.30;;;;;;;;;;5066920;28;20455;-64
2021/05/20 13:25:08;;;;;;;2.65;1.80;;;;;;;;;;5069114;28;20064;-64
2021/05/20 13:27:34;;;;;;;2.47;1.73;;;;;;;;;;5055375;28;20028;-64
2021/05/20 13:30:13;;;;;;;2.30;1.60;;;;;;;;;;5068765;28;20459;-64
2021/05/20 13:35:10;;;;;;;3.58;1.98;;;;;;;;;;5078189;28;20047;-65
2021/05/20 13:37:36;;;;;;;1.70;1.58;;;;;;;;;;5077474;28;20026;-64
2021/05/20 13:40:05;;;;;;;2.50;1.63;;;;;;;;;;5071537;28;20024;-62
2021/05/20 13:42:30;;;;;;;1.42;1.30;;;;;;;;;;5061869;28;20052;-62
2021/05/20 13:44:57;;;;;;;2.13;1.45;;;;;;;;;;5058774;28;20453;-65
2021/05/20 13:47:23;;;;;;;1.85;1.75;;;;;;;;;;5070801;28;20019;-63
2021/05/20 13:49:49;;;;;;;2.13;1.92;;;;;;;;;;5069177;28;20021;-63
2021/05/20 13:52:17;;;;;;;2.80;1.90;;;;;;;;;;5062265;28;20028;-62
2021/05/20 13:54:47;;;;;;;1.83;1.73;;;;;;;;;;5069311;28;20027;-62
2021/05/20 13:57:13;;;;;;;4.10;1.60;;;;;;;;;;5068699;28;20095;-63
2021/05/20 13:59:41;;;;;;;1.70;1.60;;;;;;;;;;5068131;28;20016;-62
2021/05/20 14:02:09;;;;;;;1.92;1.80;;;;;;;;;;5067037;28;20487;-62
2021/05/20 14:04:37;;;;;;;2.05;1.35;;;;;;;;;;5071357;28;20070;-63
2021/05/20 14:07:03;;;;;;;1.70;1.60;;;;;;;;;;5069769;28;20518;-63
2021/05/20 14:09:28;;;;;;;2.67;2.33;;;;;;;;;;5067211;28;20356;-63
2021/05/20 14:11:53;;;;;;;2.55;2.00;;;;;;;;;;5069561;28;20016;-63
2021/05/20 14:14:19;;;;;;;2.83;2.42;;;;;;;;;;5062069;28;20032;-63
2021/05/20 14:16:44;;;;;;;2.47;2.28;;;;;;;;;;5062021;28;20021;-63
2021/05/20 14:19:11;;;;;;;3.03;2.83;;;;;;;;;;5058037;28;20066;-63
2021/05/20 14:21:36;;;;;;;3.15;2.85;;;;;;;;;;5062664;28;20024;-63
2021/05/20 14:24:02;;;;;;;4.05;3.33;;;;;;;;;;5062886;28;20023;-63
2021/05/20 14:26:27;;;;;;;3.35;3.05;;;;;;;;;;5059793;28;20017;-63
2021/05/20 14:28:52;;;;;;;3.40;3.03;;;;;;;;;;5057372;28;20024;-64
2021/05/20 14:31:18;;;;;;;3.38;3.10;;;;;;;;;;5061592;28;20108;-64
2021/05/20 14:33:44;;;;;;;3.67;3.38;;;;;;;;;;5061789;28;20079;-64
2021/05/20 14:36:09;;;;;;;4.38;3.25;;;;;;;;;;5061487;28;20049;-64
2021/05/20 14:38:35;;;;;;;3.70;3.45;;;;;;;;;;5059728;28;20123;-63
2021/05/20 14:41:00;;;;;;;3.45;2.58;;;;;;;;;;5058920;28;20063;-63
2021/05/20 14:43:25;;;;;;;2.40;2.20;;;;;;;;;;5063077;28;20017;-64
2021/05/20 14:45:51;;;;;;;3.08;2.80;;;;;;;;;;5063193;28;20028;-63
2021/05/20 14:48:17;;;;;;;3.22;2.92;;;;;;;;;;5059154;28;20013;-63
2021/05/20 14:50:56;;;;;;;3.28;3.00;;;;;;;;;;5061550;28;20009;-63
2021/05/20 14:53:25;;;;;;;2.63;2.42;;;;;;;;;;5072544;28;20017;-63
2021/05/20 15:06:36;;;;;;;2.22;2.05;;;;;;;;;;5061765;28;20024;-64
2021/05/20 15:09:08;;;;;;;2.30;2.08;;;;;;;;;;5057208;28;20028;-62
2021/05/20 15:11:37;;;;;;;3.42;2.70;;;;;;;;;;5062950;28;20059;-64
2021/05/20 15:17:12;;;;;;;3.33;1.85;;;;;;;;;;5066735;28;20029;-63
2021/05/20 15:19:37;;;;;;;2.53;2.30;;;;;;;;;;5060245;28;20027;-63
2021/05/20 15:22:03;;;;;;;2.17;1.98;;;;;;;;;;5076029;28;20024;-63
2021/05/20 15:24:28;;;;;;;2.55;1.95;;;;;;;;;;5063504;28;20463;-64